sensor_id;sensor_type;location;lat;lon;timestamp;temperature;humidity
64396;DHT22;50717;53.360;6.290;2024-03-23T00:55:43;6.40;99.90
64396;DHT22;50717;53.360;6.290;2024-03-23T00:58:09;6.30;99.90
64396;DHT22;50717;53.360;6.290;2024-03-23T01:00:35;7.60;99.90
64396;DHT22;50717;53.360;6.290;2024-03-23T01:03:01;6.30;99.90
64396;DHT22;50717;53.360;6.290;2024-03-23T01:05:27;6.40;99.90
64396;DHT22;50717;53.360;6.290;2024-03-23T01:07:52;6.00;99.90
64396;DHT22;50717;53.360;6.290;2024-03-23T01:10:18;6.10;99.90
64396;DHT22;50717;53.360;6.290;2024-03-23T01:12:44;6.10;99.90
64396;DHT22;50717;53.360;6.290;2024-03-23T01:15:09;6.20;99.90
64396;DHT22;50717;53.360;6.290;2024-03-23T01:17:35;6.10;99.90
64396;DHT22;50717;53.360;6.290;2024-03-23T01:20:01;6.00;99.90
64396;DHT22;50717;53.360;6.290;2024-03-23T01:22:26;6.00;99.90
64396;DHT22;50717;53.360;6.290;2024-03-23T01:24:52;5.90;99.90
64396;DHT22;50717;53.360;6.290;2024-03-23T01:27:18;6.00;99.90
64396;DHT22;50717;53.360;6.290;2024-03-23T01:32:09;6.00;99.90
64396;DHT22;50717;53.360;6.290;2024-03-23T01:34:35;6.10;99.90
64396;DHT22;50717;53.360;6.290;2024-03-23T01:37:01;5.80;99.90
64396;DHT22;50717;53.360;6.290;2024-03-23T01:39:26;6.10;99.90
64396;DHT22;50717;53.360;6.290;2024-03-23T01:41:52;5.70;99.90
64396;DHT22;50717;53.360;6.290;2024-03-23T01:46:44;5.80;99.90
64396;DHT22;50717;53.360;6.290;2024-03-23T01:49:10;5.80;99.90
64396;DHT22;50717;53.360;6.290;2024-03-23T01:51:37;5.80;99.90
64396;DHT22;50717;53.360;6.290;2024-03-23T01:54:03;6.00;99.90
64396;DHT22;50717;53.360;6.290;2024-03-23T01:56:33;6.00;99.90
64396;DHT22;50717;53.360;6.290;2024-03-23T01:59:04;5.90;99.90
64396;DHT22;50717;53.360;6.290;2024-03-23T02:01:30;5.80;99.90
64396;DHT22;50717;53.360;6.290;2024-03-23T02:03:56;5.80;99.90
64396;DHT22;50717;53.360;6.290;2024-03-23T02:06:22;5.80;99.90
64396;DHT22;50717;53.360;6.290;2024-03-23T02:08:48;5.60;99.90
64396;DHT22;50717;53.360;6.290;2024-03-23T02:11:14;5.60;99.90
64396;DHT22;50717;53.360;6.290;2024-03-23T02:13:39;5.70;99.90
64396;DHT22;50717;53.360;6.290;2024-03-23T02:16:06;5.80;99.90
64396;DHT22;50717;53.360;6.290;2024-03-23T02:18:32;5.80;99.90
64396;DHT22;50717;53.360;6.290;2024-03-23T02:20:58;6.00;99.90
64396;DHT22;50717;53.360;6.290;2024-03-23T02:23:23;5.50;99.90
64396;DHT22;50717;53.360;6.290;2024-03-23T02:25:50;6.10;99.90
64396;DHT22;50717;53.360;6.290;2024-03-23T02:28:16;5.90;99.90
64396;DHT22;50717;53.360;6.290;2024-03-23T02:30:42;5.60;99.90
64396;DHT22;50717;53.360;6.290;2024-03-23T02:33:08;6.00;99.90
64396;DHT22;50717;53.360;6.290;2024-03-23T02:35:34;5.90;99.90
64396;DHT22;50717;53.360;6.290;2024-03-23T02:38:00;6.00;99.90
64396;DHT22;50717;53.360;6.290;2024-03-23T02:40:26;5.80;99.90
64396;DHT22;50717;53.360;6.290;2024-03-23T02:42:52;5.50;99.90
64396;DHT22;50717;53.360;6.290;2024-03-23T02:45:18;5.50;99.90
64396;DHT22;50717;53.360;6.290;2024-03-23T02:47:44;5.70;99.90
64396;DHT22;50717;53.360;6.290;2024-03-23T02:52:36;5.80;99.90
64396;DHT22;50717;53.360;6.290;2024-03-23T02:55:02;6.10;99.90
64396;DHT22;50717;53.360;6.290;2024-03-23T02:57:28;5.80;99.90
64396;DHT22;50717;53.360;6.290;2024-03-23T02:59:54;5.80;99.90
64396;DHT22;50717;53.360;6.290;2024-03-23T03:02:20;5.60;99.90
64396;DHT22;50717;53.360;6.290;2024-03-23T03:04:46;5.60;99.90
64396;DHT22;50717;53.360;6.290;2024-03-23T03:07:12;5.70;99.90
64396;DHT22;50717;53.360;6.290;2024-03-23T03:09:37;5.70;99.90
64396;DHT22;50717;53.360;6.290;2024-03-23T03:12:08;5.80;99.90
64396;DHT22;50717;53.360;6.290;2024-03-23T03:17:00;5.90;99.90
64396;DHT22;50717;53.360;6.290;2024-03-23T03:19:26;5.60;99.90
64396;DHT22;50717;53.360;6.290;2024-03-23T03:21:52;5.60;99.90
64396;DHT22;50717;53.360;6.290;2024-03-23T03:24:18;5.90;99.90
64396;DHT22;50717;53.360;6.290;2024-03-23T03:26:44;5.30;99.90
64396;DHT22;50717;53.360;6.290;2024-03-23T03:29:09;6.10;99.90
64396;DHT22;50717;53.360;6.290;2024-03-23T03:31:37;5.90;99.90
64396;DHT22;50717;53.360;6.290;2024-03-23T03:34:03;5.60;99.90
64396;DHT22;50717;53.360;6.290;2024-03-23T03:36:28;5.90;99.90
64396;DHT22;50717;53.360;6.290;2024-03-23T03:38:54;5.80;99.90
64396;DHT22;50717;53.360;6.290;2024-03-23T03:41:20;5.70;99.90
64396;DHT22;50717;53.360;6.290;2024-03-23T03:43:45;5.80;99.90
64396;DHT22;50717;53.360;6.290;2024-03-23T03:48:37;5.70;99.90
64396;DHT22;50717;53.360;6.290;2024-03-23T03:51:03;5.90;99.90
64396;DHT22;50717;53.360;6.290;2024-03-23T03:53:29;5.80;99.90
64396;DHT22;50717;53.360;6.290;2024-03-23T03:55:56;5.70;99.90
64396;DHT22;50717;53.360;6.290;2024-03-23T03:58:21;5.70;99.90
64396;DHT22;50717;53.360;6.290;2024-03-23T04:00:47;5.60;99.90
64396;DHT22;50717;53.360;6.290;2024-03-23T04:03:13;5.50;99.90
64396;DHT22;50717;53.360;6.290;2024-03-23T04:05:38;5.30;99.90
64396;DHT22;50717;53.360;6.290;2024-03-23T04:08:07;5.60;99.90
64396;DHT22;50717;53.360;6.290;2024-03-23T04:10:32;5.50;99.90
64396;DHT22;50717;53.360;6.290;2024-03-23T04:12:58;5.70;99.90
64396;DHT22;50717;53.360;6.290;2024-03-23T04:15:24;5.50;99.90
64396;DHT22;50717;53.360;6.290;2024-03-23T04:17:49;5.50;99.90
64396;DHT22;50717;53.360;6.290;2024-03-23T04:20:15;5.70;99.90
64396;DHT22;50717;53.360;6.290;2024-03-23T04:30:05;5.50;99.90
64396;DHT22;50717;53.360;6.290;2024-03-23T04:32:36;5.50;99.90
64396;DHT22;50717;53.360;6.290;2024-03-23T04:35:02;5.40;99.90
64396;DHT22;50717;53.360;6.290;2024-03-23T04:37:34;6.00;99.90
64396;DHT22;50717;53.360;6.290;2024-03-23T04:40:01;5.90;99.90
64396;DHT22;50717;53.360;6.290;2024-03-23T04:42:27;5.50;99.90
64396;DHT22;50717;53.360;6.290;2024-03-23T04:44:53;5.60;99.90
64396;DHT22;50717;53.360;6.290;2024-03-23T04:47:19;5.40;99.90
64396;DHT22;50717;53.360;6.290;2024-03-23T04:49:44;5.80;99.90
64396;DHT22;50717;53.360;6.290;2024-03-23T04:54:37;5.30;99.90
64396;DHT22;50717;53.360;6.290;2024-03-23T04:59:28;5.60;99.90
64396;DHT22;50717;53.360;6.290;2024-03-23T05:01:54;5.30;99.90
64396;DHT22;50717;53.360;6.290;2024-03-23T05:04:19;5.40;99.90
64396;DHT22;50717;53.360;6.290;2024-03-23T05:06:45;5.60;99.90
64396;DHT22;50717;53.360;6.290;2024-03-23T05:09:11;5.50;99.90
64396;DHT22;50717;53.360;6.290;2024-03-23T05:14:06;5.80;99.90
64396;DHT22;50717;53.360;6.290;2024-03-23T05:18:58;5.70;99.90
64396;DHT22;50717;53.360;6.290;2024-03-23T05:21:23;5.60;99.90
64396;DHT22;50717;53.360;6.290;2024-03-23T05:26:16;5.90;99.90
64396;DHT22;50717;53.360;6.290;2024-03-23T05:28:42;6.00;99.90
64396;DHT22;50717;53.360;6.290;2024-03-23T05:33:36;5.40;99.90
64396;DHT22;50717;53.360;6.290;2024-03-23T05:36:03;5.70;99.90
64396;DHT22;50717;53.360;6.290;2024-03-23T05:38:29;5.70;99.90
64396;DHT22;50717;53.360;6.290;2024-03-23T05:40:59;5.60;99.90
64396;DHT22;50717;53.360;6.290;2024-03-23T05:43:26;5.70;99.90
64396;DHT22;50717;53.360;6.290;2024-03-23T05:48:22;5.60;99.90
64396;DHT22;50717;53.360;6.290;2024-03-23T05:50:51;5.60;99.90
64396;DHT22;50717;53.360;6.290;2024-03-23T05:53:17;5.70;99.90
64396;DHT22;50717;53.360;6.290;2024-03-23T05:55:43;5.50;99.90
64396;DHT22;50717;53.360;6.290;2024-03-23T05:58:09;5.90;99.90
64396;DHT22;50717;53.360;6.290;2024-03-23T06:00:35;6.10;99.90
64396;DHT22;50717;53.360;6.290;2024-03-23T06:03:01;6.10;99.90
64396;DHT22;50717;53.360;6.290;2024-03-23T06:05:27;5.80;99.90
64396;DHT22;50717;53.360;6.290;2024-03-23T06:07:53;6.20;99.90
64396;DHT22;50717;53.360;6.290;2024-03-23T06:10:18;6.20;99.90
64396;DHT22;50717;53.360;6.290;2024-03-23T06:12:46;6.20;99.90
64396;DHT22;50717;53.360;6.290;2024-03-23T06:15:11;6.10;99.90
64396;DHT22;50717;53.360;6.290;2024-03-23T06:17:38;6.20;99.90
64396;DHT22;50717;53.360;6.290;2024-03-23T06:20:05;6.20;99.90
64396;DHT22;50717;53.360;6.290;2024-03-23T06:25:00;6.40;99.90
64396;DHT22;50717;53.360;6.290;2024-03-23T06:27:25;6.40;99.90
64396;DHT22;50717;53.360;6.290;2024-03-23T06:29:51;6.50;99.90
64396;DHT22;50717;53.360;6.290;2024-03-23T06:32:17;6.50;99.90
64396;DHT22;50717;53.360;6.290;2024-03-23T06:34:44;6.70;99.90
64396;DHT22;50717;53.360;6.290;2024-03-23T06:37:10;7.00;99.90
64396;DHT22;50717;53.360;6.290;2024-03-23T06:39:36;7.00;99.90
64396;DHT22;50717;53.360;6.290;2024-03-23T06:42:03;7.20;99.90
64396;DHT22;50717;53.360;6.290;2024-03-23T06:44:28;7.30;99.90
64396;DHT22;50717;53.360;6.290;2024-03-23T06:46:55;7.50;99.90
64396;DHT22;50717;53.360;6.290;2024-03-23T06:49:20;7.50;99.90
64396;DHT22;50717;53.360;6.290;2024-03-23T06:51:46;7.50;99.90
64396;DHT22;50717;53.360;6.290;2024-03-23T06:54:12;7.70;99.90
64396;DHT22;50717;53.360;6.290;2024-03-23T06:56:38;7.60;99.90
64396;DHT22;50717;53.360;6.290;2024-03-23T06:59:03;8.20;99.10
64396;DHT22;50717;53.360;6.290;2024-03-23T07:01:29;7.80;93.00
64396;DHT22;50717;53.360;6.290;2024-03-23T07:03:55;7.90;82.60
64396;DHT22;50717;53.360;6.290;2024-03-23T07:06:21;5.70;47.50
64396;DHT22;50717;53.360;6.290;2024-03-23T07:08:47;7.80;35.00
64396;DHT22;50717;53.360;6.290;2024-03-23T07:11:21;7.70;39.10
64396;DHT22;50717;53.360;6.290;2024-03-23T07:13:49;7.80;40.10
64396;DHT22;50717;53.360;6.290;2024-03-23T07:16:16;7.70;48.70
64396;DHT22;50717;53.360;6.290;2024-03-23T07:18:41;7.60;40.50
64396;DHT22;50717;53.360;6.290;2024-03-23T07:21:07;7.70;44.80
64396;DHT22;50717;53.360;6.290;2024-03-23T07:23:33;7.70;42.80
64396;DHT22;50717;53.360;6.290;2024-03-23T07:26:00;8.00;29.40
64396;DHT22;50717;53.360;6.290;2024-03-23T07:28:26;7.70;23.20
64396;DHT22;50717;53.360;6.290;2024-03-23T07:33:32;7.90;39.10
64396;DHT22;50717;53.360;6.290;2024-03-23T07:35:58;8.40;38.50
64396;DHT22;50717;53.360;6.290;2024-03-23T07:38:28;8.30;31.50
64396;DHT22;50717;53.360;6.290;2024-03-23T07:41:10;8.40;36.40
64396;DHT22;50717;53.360;6.290;2024-03-23T07:43:37;8.40;24.40
64396;DHT22;50717;53.360;6.290;2024-03-23T07:46:03;8.80;12.20
64396;DHT22;50717;53.360;6.290;2024-03-23T07:48:29;8.70;1.00
64396;DHT22;50717;53.360;6.290;2024-03-23T07:53:30;8.60;1.00
64396;DHT22;50717;53.360;6.290;2024-03-23T07:58:22;9.00;1.00
64396;DHT22;50717;53.360;6.290;2024-03-23T08:00:48;8.90;1.00
64396;DHT22;50717;53.360;6.290;2024-03-23T08:03:13;9.10;1.00
64396;DHT22;50717;53.360;6.290;2024-03-23T08:05:39;9.90;1.00
64396;DHT22;50717;53.360;6.290;2024-03-23T08:08:05;9.10;1.00
64396;DHT22;50717;53.360;6.290;2024-03-23T08:10:31;9.10;1.00
64396;DHT22;50717;53.360;6.290;2024-03-23T08:12:56;9.30;1.00
64396;DHT22;50717;53.360;6.290;2024-03-23T08:15:22;9.30;1.00
64396;DHT22;50717;53.360;6.290;2024-03-23T08:17:48;9.00;1.00
64396;DHT22;50717;53.360;6.290;2024-03-23T08:20:14;9.00;1.00
64396;DHT22;50717;53.360;6.290;2024-03-23T08:22:40;8.90;1.00
64396;DHT22;50717;53.360;6.290;2024-03-23T08:25:06;8.70;1.00
64396;DHT22;50717;53.360;6.290;2024-03-23T08:27:31;8.90;1.00
64396;DHT22;50717;53.360;6.290;2024-03-23T08:29:58;9.00;1.00
64396;DHT22;50717;53.360;6.290;2024-03-23T08:32:24;8.90;1.00
64396;DHT22;50717;53.360;6.290;2024-03-23T08:34:49;9.10;1.00
64396;DHT22;50717;53.360;6.290;2024-03-23T08:37:15;8.90;1.00
64396;DHT22;50717;53.360;6.290;2024-03-23T08:39:43;9.90;1.00
64396;DHT22;50717;53.360;6.290;2024-03-23T08:42:09;9.60;1.00
64396;DHT22;50717;53.360;6.290;2024-03-23T08:44:34;10.10;1.00
64396;DHT22;50717;53.360;6.290;2024-03-23T08:47:01;10.20;1.00
64396;DHT22;50717;53.360;6.290;2024-03-23T08:49:27;10.20;1.00
64396;DHT22;50717;53.360;6.290;2024-03-23T08:51:53;10.60;1.00
64396;DHT22;50717;53.360;6.290;2024-03-23T08:54:19;10.80;1.00
64396;DHT22;50717;53.360;6.290;2024-03-23T08:56:46;9.80;1.00
64396;DHT22;50717;53.360;6.290;2024-03-23T08:59:11;10.00;1.00
64396;DHT22;50717;53.360;6.290;2024-03-23T09:01:37;8.90;1.00
64396;DHT22;50717;53.360;6.290;2024-03-23T09:04:04;8.50;1.00
64396;DHT22;50717;53.360;6.290;2024-03-23T09:06:29;8.10;1.00
64396;DHT22;50717;53.360;6.290;2024-03-23T09:08:55;9.30;1.00
64396;DHT22;50717;53.360;6.290;2024-03-23T09:11:21;8.20;1.00
64396;DHT22;50717;53.360;6.290;2024-03-23T09:13:47;7.90;1.00
64396;DHT22;50717;53.360;6.290;2024-03-23T09:18:38;8.20;1.00
64396;DHT22;50717;53.360;6.290;2024-03-23T09:21:11;8.50;1.00
64396;DHT22;50717;53.360;6.290;2024-03-23T09:23:37;8.80;1.00
64396;DHT22;50717;53.360;6.290;2024-03-23T09:26:03;8.30;1.00
64396;DHT22;50717;53.360;6.290;2024-03-23T09:28:29;9.10;1.00
64396;DHT22;50717;53.360;6.290;2024-03-23T09:31:01;8.90;1.00
64396;DHT22;50717;53.360;6.290;2024-03-23T09:33:27;9.70;1.00
64396;DHT22;50717;53.360;6.290;2024-03-23T09:35:55;9.30;1.00
64396;DHT22;50717;53.360;6.290;2024-03-23T09:38:22;10.70;1.00
64396;DHT22;50717;53.360;6.290;2024-03-23T09:40:50;9.80;1.00
64396;DHT22;50717;53.360;6.290;2024-03-23T09:43:17;11.50;1.00
64396;DHT22;50717;53.360;6.290;2024-03-23T09:45:44;10.80;1.00
64396;DHT22;50717;53.360;6.290;2024-03-23T09:48:10;10.90;1.00
64396;DHT22;50717;53.360;6.290;2024-03-23T09:50:39;11.10;1.00
64396;DHT22;50717;53.360;6.290;2024-03-23T09:53:10;10.30;1.00
64396;DHT22;50717;53.360;6.290;2024-03-23T09:55:37;10.00;1.00
64396;DHT22;50717;53.360;6.290;2024-03-23T09:58:04;10.40;1.00
64396;DHT22;50717;53.360;6.290;2024-03-23T10:00:34;10.10;1.00
64396;DHT22;50717;53.360;6.290;2024-03-23T10:03:00;10.10;1.00
64396;DHT22;50717;53.360;6.290;2024-03-23T10:05:30;10.70;99.90
64396;DHT22;50717;53.360;6.290;2024-03-23T10:10:40;9.80;99.90
64396;DHT22;50717;53.360;6.290;2024-03-23T10:13:06;9.70;99.90
64396;DHT22;50717;53.360;6.290;2024-03-23T10:15:34;9.30;1.00
64396;DHT22;50717;53.360;6.290;2024-03-23T10:18:19;9.20;1.00
64396;DHT22;50717;53.360;6.290;2024-03-23T10:23:34;9.00;1.00
64396;DHT22;50717;53.360;6.290;2024-03-23T10:26:16;9.00;1.00
64396;DHT22;50717;53.360;6.290;2024-03-23T10:29:01;9.70;1.00
64396;DHT22;50717;53.360;6.290;2024-03-23T10:31:31;10.10;1.00
64396;DHT22;50717;53.360;6.290;2024-03-23T10:33:57;9.30;1.00
64396;DHT22;50717;53.360;6.290;2024-03-23T10:36:23;9.40;1.00
64396;DHT22;50717;53.360;6.290;2024-03-23T10:38:51;9.80;1.00
64396;DHT22;50717;53.360;6.290;2024-03-23T10:41:18;10.10;1.00
64396;DHT22;50717;53.360;6.290;2024-03-23T10:43:46;9.50;1.00
64396;DHT22;50717;53.360;6.290;2024-03-23T10:46:12;10.40;1.00
64396;DHT22;50717;53.360;6.290;2024-03-23T10:48:38;10.00;1.00
64396;DHT22;50717;53.360;6.290;2024-03-23T10:51:08;10.10;1.00
64396;DHT22;50717;53.360;6.290;2024-03-23T10:53:35;10.30;1.00
64396;DHT22;50717;53.360;6.290;2024-03-23T10:56:03;10.60;1.00
64396;DHT22;50717;53.360;6.290;2024-03-23T10:58:40;10.70;1.00
64396;DHT22;50717;53.360;6.290;2024-03-23T11:01:06;10.80;1.00
64396;DHT22;50717;53.360;6.290;2024-03-23T11:03:37;10.70;1.00
64396;DHT22;50717;53.360;6.290;2024-03-23T11:06:06;9.60;1.00
64396;DHT22;50717;53.360;6.290;2024-03-23T11:08:39;9.50;1.00
64396;DHT22;50717;53.360;6.290;2024-03-23T11:11:18;9.50;1.00
64396;DHT22;50717;53.360;6.290;2024-03-23T11:13:48;9.50;1.00
64396;DHT22;50717;53.360;6.290;2024-03-23T11:18:50;9.80;1.00
64396;DHT22;50717;53.360;6.290;2024-03-23T11:21:53;9.80;1.00
64396;DHT22;50717;53.360;6.290;2024-03-23T11:24:20;9.80;1.00
64396;DHT22;50717;53.360;6.290;2024-03-23T11:26:46;10.00;1.00
64396;DHT22;50717;53.360;6.290;2024-03-23T11:29:13;10.40;1.00
64396;DHT22;50717;53.360;6.290;2024-03-23T11:31:44;11.20;1.00
64396;DHT22;50717;53.360;6.290;2024-03-23T11:34:10;10.70;1.00
64396;DHT22;50717;53.360;6.290;2024-03-23T11:36:36;10.90;1.00
64396;DHT22;50717;53.360;6.290;2024-03-23T11:39:15;10.20;1.00
64396;DHT22;50717;53.360;6.290;2024-03-23T11:41:49;10.10;1.00
64396;DHT22;50717;53.360;6.290;2024-03-23T11:44:19;9.70;1.00
64396;DHT22;50717;53.360;6.290;2024-03-23T11:46:46;10.00;1.00
64396;DHT22;50717;53.360;6.290;2024-03-23T11:49:25;9.70;1.00
64396;DHT22;50717;53.360;6.290;2024-03-23T11:51:52;9.90;1.00
64396;DHT22;50717;53.360;6.290;2024-03-23T11:54:23;10.10;1.00
64396;DHT22;50717;53.360;6.290;2024-03-23T11:57:08;10.10;1.00
64396;DHT22;50717;53.360;6.290;2024-03-23T11:59:35;10.20;1.00
64396;DHT22;50717;53.360;6.290;2024-03-23T12:02:09;10.80;1.00
64396;DHT22;50717;53.360;6.290;2024-03-23T12:04:36;9.80;1.00
64396;DHT22;50717;53.360;6.290;2024-03-23T12:07:15;9.70;1.00
64396;DHT22;50717;53.360;6.290;2024-03-23T12:09:42;9.80;1.00
64396;DHT22;50717;53.360;6.290;2024-03-23T12:12:14;10.10;1.00
64396;DHT22;50717;53.360;6.290;2024-03-23T12:14:45;10.50;1.00
64396;DHT22;50717;53.360;6.290;2024-03-23T12:17:15;10.70;99.90
64396;DHT22;50717;53.360;6.290;2024-03-23T12:19:42;10.50;1.00
64396;DHT22;50717;53.360;6.290;2024-03-23T12:22:08;10.50;1.00
64396;DHT22;50717;53.360;6.290;2024-03-23T12:24:34;10.40;1.00
64396;DHT22;50717;53.360;6.290;2024-03-23T12:27:04;10.20;1.00
64396;DHT22;50717;53.360;6.290;2024-03-23T12:29:31;9.90;1.00
64396;DHT22;50717;53.360;6.290;2024-03-23T12:32:01;9.90;1.00
64396;DHT22;50717;53.360;6.290;2024-03-23T12:34:28;10.10;1.00
64396;DHT22;50717;53.360;6.290;2024-03-23T12:36:54;10.80;1.00
64396;DHT22;50717;53.360;6.290;2024-03-23T12:39:20;10.60;1.00
64396;DHT22;50717;53.360;6.290;2024-03-23T12:41:49;10.60;99.90
64396;DHT22;50717;53.360;6.290;2024-03-23T12:44:15;10.30;99.90
64396;DHT22;50717;53.360;6.290;2024-03-23T12:46:44;11.10;99.90
64396;DHT22;50717;53.360;6.290;2024-03-23T12:49:10;9.80;1.00
64396;DHT22;50717;53.360;6.290;2024-03-23T12:51:36;9.70;1.00
64396;DHT22;50717;53.360;6.290;2024-03-23T12:54:02;9.20;1.00
64396;DHT22;50717;53.360;6.290;2024-03-23T12:56:27;9.20;1.00
64396;DHT22;50717;53.360;6.290;2024-03-23T12:58:54;10.60;1.00
64396;DHT22;50717;53.360;6.290;2024-03-23T13:01:23;9.20;1.00
64396;DHT22;50717;53.360;6.290;2024-03-23T13:03:48;9.40;99.90
64396;DHT22;50717;53.360;6.290;2024-03-23T13:06:15;9.50;1.00
64396;DHT22;50717;53.360;6.290;2024-03-23T13:08:41;10.20;1.00
64396;DHT22;50717;53.360;6.290;2024-03-23T13:11:10;10.40;1.00
64396;DHT22;50717;53.360;6.290;2024-03-23T13:13:39;10.50;99.90
64396;DHT22;50717;53.360;6.290;2024-03-23T13:16:05;10.40;99.90
64396;DHT22;50717;53.360;6.290;2024-03-23T13:18:31;10.40;99.90
64396;DHT22;50717;53.360;6.290;2024-03-23T13:20:57;10.30;99.90
64396;DHT22;50717;53.360;6.290;2024-03-23T13:23:23;10.10;99.90
64396;DHT22;50717;53.360;6.290;2024-03-23T13:25:52;10.60;99.90
64396;DHT22;50717;53.360;6.290;2024-03-23T13:28:24;10.20;99.90
64396;DHT22;50717;53.360;6.290;2024-03-23T13:30:51;10.30;99.90
64396;DHT22;50717;53.360;6.290;2024-03-23T13:33:17;10.40;99.90
64396;DHT22;50717;53.360;6.290;2024-03-23T13:35:52;11.00;1.00
64396;DHT22;50717;53.360;6.290;2024-03-23T13:38:19;10.60;1.00
64396;DHT22;50717;53.360;6.290;2024-03-23T13:40:54;10.50;1.00
64396;DHT22;50717;53.360;6.290;2024-03-23T13:43:20;10.20;1.00
64396;DHT22;50717;53.360;6.290;2024-03-23T13:45:51;10.40;1.00
64396;DHT22;50717;53.360;6.290;2024-03-23T13:48:22;10.30;1.00
64396;DHT22;50717;53.360;6.290;2024-03-23T13:51:02;9.90;1.00
64396;DHT22;50717;53.360;6.290;2024-03-23T13:53:28;9.90;1.00
64396;DHT22;50717;53.360;6.290;2024-03-23T13:55:54;9.50;1.00
64396;DHT22;50717;53.360;6.290;2024-03-23T13:58:20;10.30;1.00
64396;DHT22;50717;53.360;6.290;2024-03-23T14:00:46;10.30;1.00
64396;DHT22;50717;53.360;6.290;2024-03-23T14:03:12;9.50;1.00
64396;DHT22;50717;53.360;6.290;2024-03-23T14:05:38;10.40;1.00
64396;DHT22;50717;53.360;6.290;2024-03-23T14:08:08;11.20;1.00
64396;DHT22;50717;53.360;6.290;2024-03-23T14:10:34;9.70;1.00
64396;DHT22;50717;53.360;6.290;2024-03-23T14:13:03;9.80;1.00
64396;DHT22;50717;53.360;6.290;2024-03-23T14:15:29;10.50;1.00
64396;DHT22;50717;53.360;6.290;2024-03-23T14:17:58;10.70;99.90
64396;DHT22;50717;53.360;6.290;2024-03-23T14:20:24;10.90;99.90
64396;DHT22;50717;53.360;6.290;2024-03-23T14:22:50;10.60;99.90
64396;DHT22;50717;53.360;6.290;2024-03-23T14:25:16;10.40;99.90
64396;DHT22;50717;53.360;6.290;2024-03-23T14:27:46;10.30;99.90
64396;DHT22;50717;53.360;6.290;2024-03-23T14:30:12;10.80;1.00
64396;DHT22;50717;53.360;6.290;2024-03-23T14:32:39;10.20;99.90
64396;DHT22;50717;53.360;6.290;2024-03-23T14:35:05;11.10;99.90
64396;DHT22;50717;53.360;6.290;2024-03-23T14:37:32;11.40;99.90
64396;DHT22;50717;53.360;6.290;2024-03-23T14:39:58;11.90;99.90
64396;DHT22;50717;53.360;6.290;2024-03-23T14:42:24;12.00;99.90
64396;DHT22;50717;53.360;6.290;2024-03-23T14:44:51;12.20;99.90
64396;DHT22;50717;53.360;6.290;2024-03-23T14:47:18;12.80;99.90
64396;DHT22;50717;53.360;6.290;2024-03-23T14:49:44;12.50;99.90
64396;DHT22;50717;53.360;6.290;2024-03-23T14:52:13;12.30;99.90
64396;DHT22;50717;53.360;6.290;2024-03-23T14:54:39;11.80;99.90
64396;DHT22;50717;53.360;6.290;2024-03-23T14:57:05;11.40;99.90
64396;DHT22;50717;53.360;6.290;2024-03-23T14:59:32;11.20;99.90
64396;DHT22;50717;53.360;6.290;2024-03-23T15:01:58;11.30;99.90
64396;DHT22;50717;53.360;6.290;2024-03-23T15:04:24;11.10;99.90
64396;DHT22;50717;53.360;6.290;2024-03-23T15:06:49;10.90;99.90
64396;DHT22;50717;53.360;6.290;2024-03-23T15:09:16;10.70;99.90
64396;DHT22;50717;53.360;6.290;2024-03-23T15:11:41;10.60;99.90
64396;DHT22;50717;53.360;6.290;2024-03-23T15:14:07;10.90;99.90
64396;DHT22;50717;53.360;6.290;2024-03-23T15:16:33;11.20;99.90
64396;DHT22;50717;53.360;6.290;2024-03-23T15:18:59;11.20;99.90
64396;DHT22;50717;53.360;6.290;2024-03-23T15:21:25;11.20;99.90
64396;DHT22;50717;53.360;6.290;2024-03-23T15:23:51;11.10;99.90
64396;DHT22;50717;53.360;6.290;2024-03-23T15:26:16;11.40;99.90
64396;DHT22;50717;53.360;6.290;2024-03-23T15:28:42;12.00;99.90
64396;DHT22;50717;53.360;6.290;2024-03-23T15:31:28;12.00;99.90
64396;DHT22;50717;53.360;6.290;2024-03-23T15:33:54;12.30;99.90
64396;DHT22;50717;53.360;6.290;2024-03-23T15:36:20;12.60;99.90
64396;DHT22;50717;53.360;6.290;2024-03-23T15:38:46;12.30;99.90
64396;DHT22;50717;53.360;6.290;2024-03-23T15:41:12;11.70;99.90
64396;DHT22;50717;53.360;6.290;2024-03-23T15:43:37;10.80;99.90
64396;DHT22;50717;53.360;6.290;2024-03-23T15:46:04;11.20;99.90
64396;DHT22;50717;53.360;6.290;2024-03-23T15:48:30;10.60;99.90
64396;DHT22;50717;53.360;6.290;2024-03-23T15:51:01;11.80;99.90
64396;DHT22;50717;53.360;6.290;2024-03-23T15:53:27;12.30;99.90
64396;DHT22;50717;53.360;6.290;2024-03-23T15:55:56;11.40;99.90
64396;DHT22;50717;53.360;6.290;2024-03-23T15:58:22;11.40;99.90
64396;DHT22;50717;53.360;6.290;2024-03-23T16:03:27;11.80;99.90
64396;DHT22;50717;53.360;6.290;2024-03-23T16:06:01;11.20;99.90
64396;DHT22;50717;53.360;6.290;2024-03-23T16:08:28;10.80;99.90
64396;DHT22;50717;53.360;6.290;2024-03-23T16:10:59;10.50;99.90
64396;DHT22;50717;53.360;6.290;2024-03-23T16:13:25;10.10;99.90
64396;DHT22;50717;53.360;6.290;2024-03-23T16:15:57;10.10;99.90
64396;DHT22;50717;53.360;6.290;2024-03-23T16:18:24;9.90;99.90
64396;DHT22;50717;53.360;6.290;2024-03-23T16:20:56;10.30;99.90
64396;DHT22;50717;53.360;6.290;2024-03-23T16:23:22;10.60;99.90
64396;DHT22;50717;53.360;6.290;2024-03-23T16:25:52;10.20;99.90
64396;DHT22;50717;53.360;6.290;2024-03-23T16:28:34;10.40;99.90
64396;DHT22;50717;53.360;6.290;2024-03-23T16:31:02;10.30;99.90
64396;DHT22;50717;53.360;6.290;2024-03-23T16:33:28;10.60;99.90
64396;DHT22;50717;53.360;6.290;2024-03-23T16:38:30;10.00;99.90
64396;DHT22;50717;53.360;6.290;2024-03-23T16:41:05;9.80;99.90
64396;DHT22;50717;53.360;6.290;2024-03-23T16:43:35;9.70;99.90
64396;DHT22;50717;53.360;6.290;2024-03-23T16:46:06;9.80;99.90
64396;DHT22;50717;53.360;6.290;2024-03-23T16:48:33;9.90;99.90
64396;DHT22;50717;53.360;6.290;2024-03-23T16:51:00;10.10;99.90
64396;DHT22;50717;53.360;6.290;2024-03-23T16:53:26;9.80;99.90
64396;DHT22;50717;53.360;6.290;2024-03-23T16:58:29;9.70;99.90
64396;DHT22;50717;53.360;6.290;2024-03-23T17:00:56;9.50;99.90
64396;DHT22;50717;53.360;6.290;2024-03-23T17:03:26;9.60;99.90
64396;DHT22;50717;53.360;6.290;2024-03-23T17:05:51;9.50;99.90
64396;DHT22;50717;53.360;6.290;2024-03-23T17:08:17;9.80;99.90
64396;DHT22;50717;53.360;6.290;2024-03-23T17:10:43;9.50;99.90
64396;DHT22;50717;53.360;6.290;2024-03-23T17:13:09;9.40;99.90
64396;DHT22;50717;53.360;6.290;2024-03-23T17:15:47;9.40;99.90
64396;DHT22;50717;53.360;6.290;2024-03-23T17:18:13;9.10;99.90
64396;DHT22;50717;53.360;6.290;2024-03-23T17:20:39;9.10;99.90
64396;DHT22;50717;53.360;6.290;2024-03-23T17:23:05;9.80;99.90
64396;DHT22;50717;53.360;6.290;2024-03-23T17:25:31;9.10;99.90
64396;DHT22;50717;53.360;6.290;2024-03-23T17:27:57;8.70;99.90
64396;DHT22;50717;53.360;6.290;2024-03-23T17:30:22;8.50;99.90
64396;DHT22;50717;53.360;6.290;2024-03-23T17:32:48;8.60;99.90
64396;DHT22;50717;53.360;6.290;2024-03-23T17:35:14;8.70;1.00
64396;DHT22;50717;53.360;6.290;2024-03-23T17:37:41;8.30;1.00
64396;DHT22;50717;53.360;6.290;2024-03-23T17:40:08;8.40;1.00
64396;DHT22;50717;53.360;6.290;2024-03-23T17:42:38;8.30;1.00
64396;DHT22;50717;53.360;6.290;2024-03-23T17:45:05;8.50;1.00
64396;DHT22;50717;53.360;6.290;2024-03-23T17:47:40;8.40;1.00